Wednesday, April 25, 2018, 1:05 AM EDT
Back to Local

KPIT, Greater Pittsburgh International

Location: Coraopolis, PA, United States Lat: 40.483
Local Time: 1:05 AM EDT ( 5:05 GMT) Lon: -80.233
Time Zone: US/Eastern Elev: 1204 ft

Show me the last for .
Show Decoded

2018-04-25 00:51 METAR KPIT 250451Z 09004KT 10SM OVC050 10/09 A2990 RMK AO2 RAE41 SLP135 P0000
                 T01000094 401440094 =
2018-04-24 23:51 METAR KPIT 250351Z 08006KT 10SM -RA FEW034 SCT055 BKN090 11/09 A2992 RMK AO2
                 RAE08B38 SLP141 P0000 T01060094 =
2018-04-24 22:51 METAR KPIT 250251Z 09005KT 10SM -RA FEW010 OVC080 11/10 A2994 RMK AO2 RAB0159
                 SLP150 PCPN VRY LGT P0000 60007 T01060100 58010 =
2018-04-24 21:51 METAR KPIT 250151Z 09007KT 10SM FEW010 BKN075 OVC090 11/10 A2996 RMK AO2 RAE48
                 SLP156 P0002 T01060100 =
2018-04-24 21:11 METAR KPIT 250111Z 09004KT 8SM -RA SCT008 BKN032 OVC070 11/10 A2998 RMK AO2
                 P0001 T01060100 =
2018-04-24 20:51 METAR KPIT 250051Z 09005KT 6SM -RA BR FEW008 BKN029 OVC065 11/10 A2998 RMK AO2
                 SLP162 P0005 T01060100 =
2018-04-24 20:36 METAR KPIT 250036Z 10006KT 6SM -RA BR FEW009 BKN029 OVC060 11/10 A2998 RMK AO2
                 P0004 T01060100 =
2018-04-24 19:51 METAR KPIT 242351Z 10007KT 6SM -RA BR FEW012 BKN031 OVC070 11/10 A2998 RMK AO2
                 SLP160 P0003 60019 T01060100 10122 20106 58006 =
2018-04-24 18:51 METAR KPIT 242251Z 09009KT 8SM -RA SCT012 BKN035 OVC065 11/10 A2998 RMK AO2
                 SLP162 P0005 T01110100 =
2018-04-24 17:51 METAR KPIT 242151Z 10006KT 7SM -RA SCT011 BKN065 OVC080 11/11 A2999 RMK AO2
                 SLP165 P0005 T01110106 =
2018-04-24 16:51 METAR KPIT 242051Z 11009KT 7SM -RA SCT025 BKN060 OVC075 12/10 A3000 RMK AO2
                 SLP166 P0004 60006 T01170100 56024 =
2018-04-24 16:39 METAR KPIT 242039Z 11012KT 5SM -RA BR FEW018 SCT027 OVC060 12/10 A3000 RMK AO2
                 P0003 T01170100 =
2018-04-24 15:51 METAR KPIT 241951Z 11011KT 6SM -RA BR SCT017 BKN024 OVC055 12/10 A3002 RMK AO2
                 SLP173 P0000 T01220100 =
2018-04-24 15:16 METAR KPIT 241916Z 11012G17KT 10SM -RA SCT014 BKN025 OVC055 12/11 A3003 RMK AO2
                 P0000 T01220106 =
2018-04-24 14:51 METAR KPIT 241851Z COR 11011KT 10SM -RA BKN014 BKN042 OVC065 12/11 A3004 RMK AO2
                 SLP179 P0002 T01220111 =
2018-04-24 13:51 METAR KPIT 241751Z 10010KT 8SM -RA SCT009 BKN013 OVC060 12/11 A3007 RMK AO2
                 SLP190 P0002 60021 T01170106 10117 20094 56020 =
2018-04-24 13:41 METAR KPIT 241741Z 10009KT 8SM -RA SCT009 BKN013 OVC065 12/11 A3007 RMK AO2
                 P0002 T01170106 =
2018-04-24 12:51 METAR KPIT 241651Z 08008KT 7SM -RA SCT007 BKN060 OVC070 11/09 A3008 RMK AO2
                 SLP194 P0004 T01060094 =
2018-04-24 12:23 METAR KPIT 241623Z 09008KT 6SM -RA BR FEW009 BKN060 OVC075 11/09 A3010 RMK AO2
                 P0002 T01060094 =
2018-04-24 11:51 METAR KPIT 241551Z 10007KT 7SM -RA FEW030 BKN060 OVC075 10/09 A3011 RMK AO2
                 SLP204 P0005 T01000089 =
2018-04-24 10:51 METAR KPIT 241451Z 08007KT 6SM -RA BR FEW032 BKN065 OVC075 09/08 A3013 RMK AO2
                 SLP210 P0004 60010 T00940083 58009 =
2018-04-24 09:51 METAR KPIT 241351Z 08008KT 6SM -RA BR BKN050 OVC070 09/07 A3014 RMK AO2 SLP215
                 P0004 T00940072 =
2018-04-24 08:51 METAR KPIT 241251Z 10007KT 9SM -RA OVC050 09/07 A3015 RMK AO2 SLP216 P0002
                 T00940067 =
2018-04-24 07:51 METAR KPIT 241151Z 11006KT 10SM -RA BKN050 OVC070 11/06 A3016 RMK AO2 SLP218
                 P0000 60000 T01060061 10128 20106 56002 =
2018-04-24 06:51 METAR KPIT 241051Z 13007KT 10SM -RA BKN065 OVC080 11/04 A3016 RMK AO2 RAB07
                 SLP219 P0000 T01110044 =
2018-04-24 05:51 METAR KPIT 240951Z 11008KT 10SM FEW055 SCT070 OVC100 11/06 A3016 RMK AO2 SLP218
                 T01110061 =
2018-04-24 04:51 METAR KPIT 240851Z 11009KT 10SM OVC070 12/07 A3017 RMK AO2 RAB29E46 SLP220 P0000
                 60000 T01170072 56006 =
2018-04-24 03:51 METAR KPIT 240751Z 12008KT 10SM OVC085 12/08 A3017 RMK AO2 SLP220 T01170078 =
2018-04-24 02:51 METAR KPIT 240651Z 10008KT 10SM OVC055 12/09 A3017 RMK AO2 RAE24 SLP221 P0000
                 T01170089 =
2018-04-24 01:51 METAR KPIT 240551Z 12009KT 10SM -RA FEW065 OVC085 13/08 A3018 RMK AO2 RAB08
                 SLP225 P0000 60000 T01280083 10189 20128 56009 =

Support USWX by starting your Amazon purchase here.